createdAt,value
2023-03-22T00:02:47.681Z,9.10
2023-03-22T00:05:35.276Z,9.10
2023-03-22T00:08:22.710Z,8.95
2023-03-22T00:11:10.532Z,9.00
2023-03-22T00:13:59.726Z,8.68
2023-03-22T00:16:49.152Z,8.50
2023-03-22T00:19:37.160Z,8.07
2023-03-22T00:22:25.764Z,8.57
2023-03-22T00:25:12.975Z,8.13
2023-03-22T00:27:59.872Z,7.90
2023-03-22T00:30:54.674Z,7.75
2023-03-22T00:33:41.742Z,7.95
2023-03-22T00:36:30.348Z,8.00
2023-03-22T00:39:17.499Z,7.47
2023-03-22T00:42:06.302Z,7.80
2023-03-22T00:44:53.586Z,7.40
2023-03-22T00:47:42.235Z,7.35
2023-03-22T00:50:29.268Z,7.50
2023-03-22T00:53:16.937Z,7.18
2023-03-22T00:56:04.504Z,7.57
2023-03-22T00:58:59.181Z,7.50
2023-03-22T01:01:46.700Z,7.18
2023-03-22T01:04:35.891Z,6.88
2023-03-22T01:07:24.713Z,7.18
2023-03-22T01:10:12.281Z,7.10
2023-03-22T01:12:59.285Z,6.72
2023-03-22T01:15:47.926Z,6.67
2023-03-22T01:18:35.926Z,7.07
2023-03-22T01:21:25.058Z,6.90
2023-03-22T01:24:12.273Z,6.55
2023-03-22T01:27:00.096Z,6.47
2023-03-22T01:29:47.140Z,6.68
2023-03-22T01:32:34.724Z,5.85
2023-03-22T01:35:22.097Z,6.32
2023-03-22T01:38:11.389Z,6.20
2023-03-22T01:41:07.999Z,6.07
2023-03-22T01:44:10.666Z,6.32
2023-03-22T01:46:57.442Z,5.97
2023-03-22T01:49:44.858Z,5.85
2023-03-22T01:52:32.930Z,5.53
2023-03-22T01:55:28.116Z,5.57
2023-03-22T01:58:37.515Z,5.53
2023-03-22T02:01:27.433Z,5.53
2023-03-22T02:04:20.046Z,5.10
2023-03-22T02:07:15.322Z,5.07
2023-03-22T02:10:05.169Z,5.10
2023-03-22T02:13:38.979Z,5.30
2023-03-22T02:17:06.965Z,4.82
2023-03-22T02:20:43.130Z,4.63
2023-03-22T02:23:58.927Z,4.43
2023-03-22T02:27:24.601Z,5.13
2023-03-22T02:30:41.271Z,4.18
2023-03-22T02:33:46.253Z,4.57
2023-03-22T02:37:05.740Z,4.60
2023-03-22T02:39:58.257Z,4.70
2023-03-22T02:42:55.739Z,4.32
2023-03-22T02:45:51.195Z,4.68
2023-03-22T02:48:45.327Z,4.30
2023-03-22T02:51:38.099Z,4.38
2023-03-22T02:54:29.858Z,4.38
2023-03-22T02:57:23.941Z,4.60
2023-03-22T03:00:14.208Z,4.60
2023-03-22T03:03:11.615Z,4.40
2023-03-22T03:06:03.690Z,4.43
2023-03-22T03:08:52.332Z,4.10
2023-03-22T03:11:39.518Z,4.03
2023-03-22T03:14:30.267Z,4.22
2023-03-22T03:17:29.142Z,4.20
2023-03-22T03:20:34.893Z,4.05
2023-03-22T03:23:31.337Z,4.10
2023-03-22T03:26:25.039Z,4.00
2023-03-22T03:29:19.907Z,4.10
2023-03-22T03:32:11.179Z,3.60
2023-03-22T03:35:03.754Z,3.90
2023-03-22T03:37:54.875Z,3.58
2023-03-22T03:40:45.330Z,4.00
2023-03-22T03:43:33.483Z,3.50
2023-03-22T03:46:21.160Z,3.53
2023-03-22T03:49:12.777Z,3.88
2023-03-22T03:52:01.545Z,3.90
2023-03-22T03:54:48.819Z,3.78
2023-03-22T03:57:39.674Z,3.83
2023-03-22T04:00:27.363Z,3.90
2023-03-22T04:03:50.913Z,4.38
2023-03-22T04:06:53.098Z,4.70
2023-03-22T04:09:44.048Z,4.55
2023-03-22T04:12:43.788Z,4.88
2023-03-22T04:15:36.817Z,5.07
2023-03-22T04:18:30.099Z,5.15
2023-03-22T04:21:21.824Z,4.60
2023-03-22T04:24:17.810Z,4.97
2023-03-22T04:27:08.248Z,4.90
2023-03-22T04:30:20.430Z,5.13
2023-03-22T04:33:39.314Z,4.53
2023-03-22T04:36:31.189Z,4.68
2023-03-22T04:39:38.730Z,4.75
2023-03-22T04:42:45.757Z,4.97
2023-03-22T04:45:39.148Z,4.63
2023-03-22T04:48:28.146Z,4.72
2023-03-22T04:51:16.885Z,4.55
2023-03-22T04:54:18.148Z,4.53
2023-03-22T04:57:07.065Z,4.70
2023-03-22T04:59:59.402Z,4.40
2023-03-22T05:02:46.697Z,4.50
2023-03-22T05:05:53.428Z,4.38
2023-03-22T05:08:41.908Z,4.45
2023-03-22T05:11:29.363Z,4.15
2023-03-22T05:14:36.455Z,4.45
2023-03-22T05:17:24.347Z,4.13
2023-03-22T05:20:14.742Z,4.03
2023-03-22T05:23:06.568Z,4.10
2023-03-22T05:25:55.126Z,4.25
2023-03-22T05:28:42.990Z,3.92
2023-03-22T05:31:40.357Z,4.40
2023-03-22T05:34:35.352Z,4.50
2023-03-22T05:37:31.697Z,4.10
2023-03-22T05:40:19.490Z,4.28
2023-03-22T05:43:07.266Z,4.10
2023-03-22T05:45:55.390Z,3.92
2023-03-22T05:48:56.552Z,4.68
2023-03-22T05:51:43.838Z,4.10
2023-03-22T05:54:33.134Z,4.60
2023-03-22T05:57:21.139Z,4.35
2023-03-22T06:00:14.996Z,4.03
2023-03-22T06:03:19.300Z,4.07
2023-03-22T06:06:15.833Z,4.45
2023-03-22T06:09:19.721Z,4.20
2023-03-22T06:12:11.725Z,3.97
2023-03-22T06:14:59.781Z,4.28
2023-03-22T06:18:09.690Z,4.10
2023-03-22T06:21:01.321Z,4.03
2023-03-22T06:23:49.912Z,3.88
2023-03-22T06:26:37.244Z,3.63
2023-03-22T06:29:24.442Z,3.65
2023-03-22T06:32:14.220Z,3.50
2023-03-22T06:35:01.798Z,3.40
2023-03-22T06:37:49.145Z,3.60
2023-03-22T06:40:38.082Z,3.80
2023-03-22T06:43:25.474Z,3.80
2023-03-22T06:46:18.642Z,4.50
2023-03-22T06:49:14.878Z,4.03
2023-03-22T06:52:02.193Z,3.90
2023-03-22T06:54:49.252Z,4.03
2023-03-22T06:57:38.074Z,3.90
2023-03-22T07:00:25.330Z,3.88
2023-03-22T07:03:12.444Z,4.05
2023-03-22T07:06:05.974Z,3.80
2023-03-22T07:08:56.426Z,3.67
2023-03-22T07:11:48.715Z,4.18
2023-03-22T07:14:37.307Z,3.58
2023-03-22T07:17:38.221Z,3.92
2023-03-22T07:20:25.932Z,3.63
2023-03-22T07:23:13.241Z,3.33
2023-03-22T07:26:07.784Z,3.60
2023-03-22T07:28:57.371Z,3.50
2023-03-22T07:31:49.951Z,3.90
2023-03-22T07:34:43.360Z,3.63
2023-03-22T07:37:36.262Z,3.17
2023-03-22T07:40:28.739Z,3.20
2023-03-22T07:43:16.797Z,3.60
2023-03-22T07:46:14.569Z,3.40
2023-03-22T07:49:03.324Z,3.10
2023-03-22T07:52:23.528Z,2.95
2023-03-22T07:55:12.887Z,3.08
2023-03-22T07:58:06.831Z,3.53
2023-03-22T08:00:54.139Z,3.20
2023-03-22T08:04:00.439Z,3.20
2023-03-22T08:07:01.014Z,3.67
2023-03-22T08:09:49.509Z,3.13
2023-03-22T08:12:37.213Z,2.95
2023-03-22T08:15:32.510Z,3.50
2023-03-22T08:18:20.022Z,3.40
2023-03-22T08:21:07.647Z,3.03
2023-03-22T08:23:57.368Z,3.60
2023-03-22T08:27:10.703Z,3.17
2023-03-22T08:30:11.394Z,3.47
2023-03-22T08:32:58.803Z,3.33
2023-03-22T08:35:46.499Z,3.17
2023-03-22T08:38:34.025Z,3.30
2023-03-22T08:41:23.652Z,3.28
2023-03-22T08:44:11.569Z,2.90
2023-03-22T08:46:58.927Z,2.78
2023-03-22T08:49:46.225Z,2.83
2023-03-22T08:52:43.384Z,2.80
2023-03-22T08:55:58.222Z,2.78
2023-03-22T08:59:10.815Z,3.10
2023-03-22T09:02:13.055Z,2.95
2023-03-22T09:05:01.775Z,2.80
2023-03-22T09:07:52.835Z,2.88
2023-03-22T09:10:52.135Z,2.75
2023-03-22T09:13:41.658Z,2.85
2023-03-22T09:16:31.670Z,3.00
2023-03-22T09:19:21.116Z,2.60
2023-03-22T09:22:08.961Z,2.90
2023-03-22T09:25:07.980Z,2.80
2023-03-22T09:27:55.706Z,2.90
2023-03-22T09:30:42.929Z,3.00
2023-03-22T09:33:33.430Z,3.20
2023-03-22T09:36:21.012Z,2.80
2023-03-22T09:39:10.039Z,2.75
2023-03-22T09:42:00.654Z,2.80
2023-03-22T09:44:49.952Z,2.70
2023-03-22T09:47:46.140Z,3.27
2023-03-22T09:50:36.982Z,2.90
2023-03-22T09:53:25.936Z,2.90
2023-03-22T09:56:19.901Z,3.03
2023-03-22T09:59:13.968Z,2.95
2023-03-22T10:02:04.835Z,2.83
2023-03-22T10:05:00.618Z,2.60
2023-03-22T10:08:14.859Z,2.90
2023-03-22T10:11:02.737Z,2.35
2023-03-22T10:13:58.681Z,2.65
2023-03-22T10:16:46.691Z,2.50
2023-03-22T10:19:37.935Z,2.13
2023-03-22T10:22:30.407Z,2.78
2023-03-22T10:25:22.663Z,2.40
2023-03-22T10:28:19.902Z,2.50
2023-03-22T10:31:07.731Z,2.30
2023-03-22T10:33:59.528Z,2.08
2023-03-22T10:36:49.736Z,2.42
2023-03-22T10:39:40.207Z,2.50
2023-03-22T10:42:31.702Z,2.55
2023-03-22T10:45:20.451Z,2.50
2023-03-22T10:48:12.492Z,2.58
2023-03-22T10:51:00.525Z,2.55
2023-03-22T10:53:50.553Z,2.70
2023-03-22T10:56:37.456Z,3.30
2023-03-22T10:59:48.224Z,2.50
2023-03-22T11:02:35.536Z,2.70
2023-03-22T11:05:25.901Z,2.67
2023-03-22T11:08:16.149Z,2.50
2023-03-22T11:11:07.782Z,2.40
2023-03-22T11:14:01.099Z,2.38
2023-03-22T11:16:56.236Z,2.83
2023-03-22T11:19:52.333Z,2.30
2023-03-22T11:22:41.635Z,2.63
2023-03-22T11:25:31.631Z,2.67
2023-03-22T11:28:20.636Z,3.33
2023-03-22T11:31:09.444Z,2.47
2023-03-22T11:34:00.250Z,2.50
2023-03-22T11:36:52.766Z,2.50
2023-03-22T11:39:48.530Z,2.50
2023-03-22T11:42:36.745Z,2.55
2023-03-22T11:45:28.008Z,2.40
2023-03-22T11:48:19.179Z,2.55
2023-03-22T11:51:12.658Z,2.53
2023-03-22T11:54:06.772Z,2.75
2023-03-22T11:56:58.026Z,2.78
2023-03-22T11:59:51.439Z,2.80
2023-03-22T12:02:45.381Z,3.57
2023-03-22T12:05:34.797Z,2.88
2023-03-22T12:08:29.579Z,3.20
2023-03-22T12:11:22.176Z,3.00
2023-03-22T12:14:17.898Z,3.20
2023-03-22T12:17:11.684Z,3.38
2023-03-22T12:20:06.318Z,2.67
2023-03-22T12:22:56.163Z,3.13
2023-03-22T12:25:51.379Z,3.17
2023-03-22T12:28:43.134Z,2.90
2023-03-22T12:31:33.459Z,3.00
2023-03-22T12:34:24.259Z,3.20
2023-03-22T12:37:18.946Z,3.03
2023-03-22T12:40:10.153Z,2.70
2023-03-22T12:43:07.841Z,2.90
2023-03-22T12:46:00.458Z,3.20
2023-03-22T12:48:51.634Z,3.08
2023-03-22T12:51:39.531Z,3.10
2023-03-22T12:54:27.582Z,3.05
2023-03-22T12:57:16.941Z,2.72
2023-03-22T13:00:17.687Z,3.10
2023-03-22T13:03:10.670Z,3.10
2023-03-22T13:06:05.260Z,3.00
2023-03-22T13:09:15.814Z,3.20
2023-03-22T13:12:29.980Z,3.42
2023-03-22T13:15:41.204Z,4.85
2023-03-22T13:18:58.174Z,3.80
2023-03-22T13:21:45.950Z,3.88
2023-03-22T13:24:34.476Z,3.42
2023-03-22T13:27:21.468Z,3.67
2023-03-22T13:30:18.051Z,3.40
2023-03-22T13:33:22.140Z,3.47
2023-03-22T13:36:25.048Z,3.40
2023-03-22T13:39:16.102Z,3.30
2023-03-22T13:42:10.771Z,2.95
2023-03-22T13:45:02.460Z,2.80
2023-03-22T13:48:05.485Z,2.88
2023-03-22T13:50:54.462Z,3.08
2023-03-22T13:53:46.086Z,3.47
2023-03-22T13:56:48.630Z,3.03
2023-03-22T14:00:11.273Z,3.30
2023-03-22T14:03:03.567Z,3.20
2023-03-22T14:06:04.250Z,3.25
2023-03-22T14:08:55.564Z,3.55
2023-03-22T14:11:48.439Z,3.28
2023-03-22T14:14:43.135Z,3.50
2023-03-22T14:17:36.271Z,3.03
2023-03-22T14:20:26.177Z,3.53
